sensor_id;sensor_type;location;lat;lon;timestamp;P1;durP1;ratioP1;P2;durP2;ratioP2
1679;SDS011;838;51.794;12.258;2024-03-29T00:00:38;3.23;;;1.73;;
1679;SDS011;838;51.794;12.258;2024-03-29T00:03:05;3.53;;;1.67;;
1679;SDS011;838;51.794;12.258;2024-03-29T00:05:32;4.17;;;1.80;;
1679;SDS011;838;51.794;12.258;2024-03-29T00:08:01;4.13;;;1.67;;
1679;SDS011;838;51.794;12.258;2024-03-29T00:10:28;3.13;;;1.80;;
1679;SDS011;838;51.794;12.258;2024-03-29T00:12:54;3.47;;;1.83;;
1679;SDS011;838;51.794;12.258;2024-03-29T00:15:19;5.30;;;1.60;;
1679;SDS011;838;51.794;12.258;2024-03-29T00:17:45;4.33;;;1.77;;
1679;SDS011;838;51.794;12.258;2024-03-29T00:20:11;4.63;;;1.57;;
1679;SDS011;838;51.794;12.258;2024-03-29T00:22:37;3.97;;;1.70;;
1679;SDS011;838;51.794;12.258;2024-03-29T00:25:03;3.17;;;1.40;;
1679;SDS011;838;51.794;12.258;2024-03-29T00:27:29;5.00;;;2.00;;
1679;SDS011;838;51.794;12.258;2024-03-29T00:29:55;3.73;;;2.00;;
1679;SDS011;838;51.794;12.258;2024-03-29T00:32:21;2.70;;;1.23;;
1679;SDS011;838;51.794;12.258;2024-03-29T00:34:51;2.90;;;1.40;;
1679;SDS011;838;51.794;12.258;2024-03-29T00:37:18;4.67;;;1.63;;
1679;SDS011;838;51.794;12.258;2024-03-29T00:39:44;4.50;;;1.40;;
1679;SDS011;838;51.794;12.258;2024-03-29T00:42:10;3.40;;;1.60;;
1679;SDS011;838;51.794;12.258;2024-03-29T00:44:40;3.93;;;1.60;;
1679;SDS011;838;51.794;12.258;2024-03-29T00:47:06;3.10;;;1.47;;
1679;SDS011;838;51.794;12.258;2024-03-29T00:49:33;3.47;;;1.60;;
1679;SDS011;838;51.794;12.258;2024-03-29T00:51:59;4.70;;;1.60;;
1679;SDS011;838;51.794;12.258;2024-03-29T00:54:25;3.30;;;1.60;;
1679;SDS011;838;51.794;12.258;2024-03-29T00:56:51;2.97;;;1.50;;
1679;SDS011;838;51.794;12.258;2024-03-29T00:59:17;3.80;;;1.53;;
1679;SDS011;838;51.794;12.258;2024-03-29T01:01:44;3.87;;;1.53;;
1679;SDS011;838;51.794;12.258;2024-03-29T01:04:10;3.40;;;1.63;;
1679;SDS011;838;51.794;12.258;2024-03-29T01:06:36;3.07;;;1.70;;
1679;SDS011;838;51.794;12.258;2024-03-29T01:09:02;6.20;;;1.67;;
1679;SDS011;838;51.794;12.258;2024-03-29T01:11:29;3.57;;;1.70;;
1679;SDS011;838;51.794;12.258;2024-03-29T01:13:55;3.27;;;1.40;;
1679;SDS011;838;51.794;12.258;2024-03-29T01:16:21;3.63;;;1.70;;
1679;SDS011;838;51.794;12.258;2024-03-29T01:18:47;4.30;;;1.40;;
1679;SDS011;838;51.794;12.258;2024-03-29T01:21:13;7.73;;;1.37;;
1679;SDS011;838;51.794;12.258;2024-03-29T01:23:39;3.70;;;1.57;;
1679;SDS011;838;51.794;12.258;2024-03-29T01:26:06;8.40;;;1.80;;
1679;SDS011;838;51.794;12.258;2024-03-29T01:28:32;2.80;;;1.40;;
1679;SDS011;838;51.794;12.258;2024-03-29T01:30:58;2.97;;;1.60;;
1679;SDS011;838;51.794;12.258;2024-03-29T01:33:24;5.30;;;1.60;;
1679;SDS011;838;51.794;12.258;2024-03-29T01:35:50;2.87;;;1.37;;
1679;SDS011;838;51.794;12.258;2024-03-29T01:38:16;3.73;;;1.30;;
1679;SDS011;838;51.794;12.258;2024-03-29T01:40:42;2.80;;;1.40;;
1679;SDS011;838;51.794;12.258;2024-03-29T01:43:08;2.50;;;1.10;;
1679;SDS011;838;51.794;12.258;2024-03-29T01:45:39;3.53;;;1.23;;
1679;SDS011;838;51.794;12.258;2024-03-29T01:48:07;4.47;;;1.43;;
1679;SDS011;838;51.794;12.258;2024-03-29T01:50:34;3.53;;;1.40;;
1679;SDS011;838;51.794;12.258;2024-03-29T01:53:01;2.80;;;1.20;;
1679;SDS011;838;51.794;12.258;2024-03-29T01:55:28;3.17;;;1.47;;
1679;SDS011;838;51.794;12.258;2024-03-29T01:57:54;3.53;;;1.40;;
1679;SDS011;838;51.794;12.258;2024-03-29T02:00:21;4.07;;;1.37;;
1679;SDS011;838;51.794;12.258;2024-03-29T02:02:48;2.80;;;1.20;;
1679;SDS011;838;51.794;12.258;2024-03-29T02:05:14;3.43;;;1.40;;
1679;SDS011;838;51.794;12.258;2024-03-29T02:07:39;5.00;;;1.40;;
1679;SDS011;838;51.794;12.258;2024-03-29T02:10:09;2.80;;;1.50;;
1679;SDS011;838;51.794;12.258;2024-03-29T02:12:37;4.60;;;1.47;;
1679;SDS011;838;51.794;12.258;2024-03-29T02:15:04;3.63;;;1.63;;
1679;SDS011;838;51.794;12.258;2024-03-29T02:17:34;6.93;;;1.70;;
1679;SDS011;838;51.794;12.258;2024-03-29T02:20:00;3.40;;;1.40;;
1679;SDS011;838;51.794;12.258;2024-03-29T02:22:27;3.10;;;1.40;;
1679;SDS011;838;51.794;12.258;2024-03-29T02:24:54;3.90;;;1.77;;
1679;SDS011;838;51.794;12.258;2024-03-29T02:27:21;2.93;;;1.43;;
1679;SDS011;838;51.794;12.258;2024-03-29T02:29:47;5.47;;;1.83;;
1679;SDS011;838;51.794;12.258;2024-03-29T02:32:13;4.83;;;1.80;;
1679;SDS011;838;51.794;12.258;2024-03-29T02:34:39;2.93;;;1.27;;
1679;SDS011;838;51.794;12.258;2024-03-29T02:37:05;3.47;;;1.50;;
1679;SDS011;838;51.794;12.258;2024-03-29T02:39:31;3.83;;;1.57;;
1679;SDS011;838;51.794;12.258;2024-03-29T02:41:57;3.60;;;1.60;;
1679;SDS011;838;51.794;12.258;2024-03-29T02:44:23;3.40;;;1.50;;
1679;SDS011;838;51.794;12.258;2024-03-29T02:46:49;3.63;;;1.40;;
1679;SDS011;838;51.794;12.258;2024-03-29T02:49:14;2.50;;;1.00;;
1679;SDS011;838;51.794;12.258;2024-03-29T02:51:40;3.57;;;1.33;;
1679;SDS011;838;51.794;12.258;2024-03-29T02:54:06;3.07;;;1.40;;
1679;SDS011;838;51.794;12.258;2024-03-29T02:56:31;3.53;;;1.27;;
1679;SDS011;838;51.794;12.258;2024-03-29T02:58:57;3.50;;;1.40;;
1679;SDS011;838;51.794;12.258;2024-03-29T03:01:23;3.10;;;1.30;;
1679;SDS011;838;51.794;12.258;2024-03-29T03:03:49;2.90;;;1.30;;
1679;SDS011;838;51.794;12.258;2024-03-29T03:06:15;4.40;;;1.83;;
1679;SDS011;838;51.794;12.258;2024-03-29T03:08:40;2.90;;;1.50;;
1679;SDS011;838;51.794;12.258;2024-03-29T03:11:24;4.27;;;1.50;;
1679;SDS011;838;51.794;12.258;2024-03-29T03:13:50;5.40;;;1.50;;
1679;SDS011;838;51.794;12.258;2024-03-29T03:16:16;3.53;;;1.20;;
1679;SDS011;838;51.794;12.258;2024-03-29T03:18:42;3.27;;;1.60;;
1679;SDS011;838;51.794;12.258;2024-03-29T03:21:08;3.27;;;1.43;;
1679;SDS011;838;51.794;12.258;2024-03-29T03:23:34;4.40;;;1.57;;
1679;SDS011;838;51.794;12.258;2024-03-29T03:26:03;5.60;;;1.70;;
1679;SDS011;838;51.794;12.258;2024-03-29T03:28:29;2.87;;;1.43;;
1679;SDS011;838;51.794;12.258;2024-03-29T03:30:55;4.30;;;1.50;;
1679;SDS011;838;51.794;12.258;2024-03-29T03:33:21;3.17;;;1.60;;
1679;SDS011;838;51.794;12.258;2024-03-29T03:35:47;6.43;;;1.40;;
1679;SDS011;838;51.794;12.258;2024-03-29T03:38:13;3.67;;;1.60;;
1679;SDS011;838;51.794;12.258;2024-03-29T03:40:40;2.57;;;1.20;;
1679;SDS011;838;51.794;12.258;2024-03-29T03:43:06;7.07;;;2.40;;
1679;SDS011;838;51.794;12.258;2024-03-29T03:48:04;3.00;;;1.30;;
1679;SDS011;838;51.794;12.258;2024-03-29T03:50:31;3.13;;;1.50;;
1679;SDS011;838;51.794;12.258;2024-03-29T03:52:58;3.83;;;1.77;;
1679;SDS011;838;51.794;12.258;2024-03-29T03:55:23;3.40;;;1.80;;
1679;SDS011;838;51.794;12.258;2024-03-29T03:57:50;2.57;;;1.10;;
1679;SDS011;838;51.794;12.258;2024-03-29T04:00:17;5.13;;;1.30;;
1679;SDS011;838;51.794;12.258;2024-03-29T04:02:50;5.97;;;3.00;;
1679;SDS011;838;51.794;12.258;2024-03-29T04:05:17;3.80;;;1.20;;
1679;SDS011;838;51.794;12.258;2024-03-29T04:07:46;3.60;;;1.30;;
1679;SDS011;838;51.794;12.258;2024-03-29T04:10:11;3.83;;;1.67;;
1679;SDS011;838;51.794;12.258;2024-03-29T04:12:38;3.23;;;1.30;;
1679;SDS011;838;51.794;12.258;2024-03-29T04:15:04;3.03;;;1.40;;
1679;SDS011;838;51.794;12.258;2024-03-29T04:17:31;3.00;;;1.40;;
1679;SDS011;838;51.794;12.258;2024-03-29T04:19:57;3.63;;;1.47;;
1679;SDS011;838;51.794;12.258;2024-03-29T04:22:23;2.80;;;1.20;;
1679;SDS011;838;51.794;12.258;2024-03-29T04:24:50;3.47;;;1.50;;
1679;SDS011;838;51.794;12.258;2024-03-29T04:27:16;7.37;;;2.00;;
1679;SDS011;838;51.794;12.258;2024-03-29T04:29:42;4.57;;;1.90;;
1679;SDS011;838;51.794;12.258;2024-03-29T04:32:07;3.63;;;1.30;;
1679;SDS011;838;51.794;12.258;2024-03-29T04:34:34;2.90;;;1.30;;
1679;SDS011;838;51.794;12.258;2024-03-29T04:36:59;3.03;;;1.53;;
1679;SDS011;838;51.794;12.258;2024-03-29T04:39:25;4.97;;;1.57;;
1679;SDS011;838;51.794;12.258;2024-03-29T04:41:52;5.23;;;1.40;;
1679;SDS011;838;51.794;12.258;2024-03-29T04:44:24;3.47;;;1.47;;
1679;SDS011;838;51.794;12.258;2024-03-29T04:46:51;2.63;;;1.13;;
1679;SDS011;838;51.794;12.258;2024-03-29T04:49:18;5.93;;;1.30;;
1679;SDS011;838;51.794;12.258;2024-03-29T04:51:49;4.43;;;1.40;;
1679;SDS011;838;51.794;12.258;2024-03-29T04:54:15;2.90;;;1.53;;
1679;SDS011;838;51.794;12.258;2024-03-29T04:56:42;3.00;;;1.20;;
1679;SDS011;838;51.794;12.258;2024-03-29T04:59:08;3.30;;;1.30;;
1679;SDS011;838;51.794;12.258;2024-03-29T05:01:35;4.00;;;1.53;;
1679;SDS011;838;51.794;12.258;2024-03-29T05:04:01;6.57;;;1.90;;
1679;SDS011;838;51.794;12.258;2024-03-29T05:06:27;5.83;;;1.70;;
1679;SDS011;838;51.794;12.258;2024-03-29T05:08:54;5.33;;;2.80;;
1679;SDS011;838;51.794;12.258;2024-03-29T05:11:20;7.83;;;3.90;;
1679;SDS011;838;51.794;12.258;2024-03-29T05:13:46;12.70;;;6.97;;
1679;SDS011;838;51.794;12.258;2024-03-29T05:16:12;12.30;;;6.30;;
1679;SDS011;838;51.794;12.258;2024-03-29T05:18:38;13.80;;;7.80;;
1679;SDS011;838;51.794;12.258;2024-03-29T05:21:04;12.67;;;5.40;;
1679;SDS011;838;51.794;12.258;2024-03-29T05:23:30;9.20;;;4.50;;
1679;SDS011;838;51.794;12.258;2024-03-29T05:25:55;6.50;;;2.83;;
1679;SDS011;838;51.794;12.258;2024-03-29T05:28:21;4.73;;;1.80;;
1679;SDS011;838;51.794;12.258;2024-03-29T05:30:47;6.00;;;1.50;;
1679;SDS011;838;51.794;12.258;2024-03-29T05:33:12;2.90;;;1.30;;
1679;SDS011;838;51.794;12.258;2024-03-29T05:35:38;3.87;;;1.43;;
1679;SDS011;838;51.794;12.258;2024-03-29T05:38:04;3.93;;;1.30;;
1679;SDS011;838;51.794;12.258;2024-03-29T05:40:30;3.80;;;1.10;;
1679;SDS011;838;51.794;12.258;2024-03-29T05:42:55;2.60;;;1.20;;
1679;SDS011;838;51.794;12.258;2024-03-29T05:45:25;3.40;;;1.40;;
1679;SDS011;838;51.794;12.258;2024-03-29T05:47:54;4.10;;;1.40;;
1679;SDS011;838;51.794;12.258;2024-03-29T05:50:21;4.70;;;1.43;;
1679;SDS011;838;51.794;12.258;2024-03-29T05:52:48;3.73;;;1.50;;
1679;SDS011;838;51.794;12.258;2024-03-29T05:55:14;3.43;;;1.30;;
1679;SDS011;838;51.794;12.258;2024-03-29T05:57:40;3.43;;;1.40;;
1679;SDS011;838;51.794;12.258;2024-03-29T06:00:10;4.77;;;1.37;;
1679;SDS011;838;51.794;12.258;2024-03-29T06:02:38;2.80;;;1.20;;
1679;SDS011;838;51.794;12.258;2024-03-29T06:05:05;2.57;;;1.23;;
1679;SDS011;838;51.794;12.258;2024-03-29T06:07:31;3.50;;;1.47;;
1679;SDS011;838;51.794;12.258;2024-03-29T06:09:58;4.20;;;1.30;;
1679;SDS011;838;51.794;12.258;2024-03-29T06:12:32;3.20;;;1.43;;
1679;SDS011;838;51.794;12.258;2024-03-29T06:14:59;2.80;;;1.30;;
1679;SDS011;838;51.794;12.258;2024-03-29T06:17:43;3.20;;;1.60;;
1679;SDS011;838;51.794;12.258;2024-03-29T06:20:10;3.10;;;1.30;;
1679;SDS011;838;51.794;12.258;2024-03-29T06:22:36;2.90;;;1.20;;
1679;SDS011;838;51.794;12.258;2024-03-29T06:25:02;3.30;;;1.40;;
1679;SDS011;838;51.794;12.258;2024-03-29T06:27:34;3.77;;;1.20;;
1679;SDS011;838;51.794;12.258;2024-03-29T06:30:01;3.60;;;1.47;;
1679;SDS011;838;51.794;12.258;2024-03-29T06:32:29;4.17;;;1.53;;
1679;SDS011;838;51.794;12.258;2024-03-29T06:34:55;3.30;;;1.40;;
1679;SDS011;838;51.794;12.258;2024-03-29T06:37:21;3.07;;;1.43;;
1679;SDS011;838;51.794;12.258;2024-03-29T06:39:50;3.50;;;1.67;;
1679;SDS011;838;51.794;12.258;2024-03-29T06:42:16;4.23;;;1.70;;
1679;SDS011;838;51.794;12.258;2024-03-29T06:44:42;3.10;;;1.40;;
1679;SDS011;838;51.794;12.258;2024-03-29T06:47:08;2.67;;;1.27;;
1679;SDS011;838;51.794;12.258;2024-03-29T06:49:34;3.00;;;1.40;;
1679;SDS011;838;51.794;12.258;2024-03-29T06:52:00;3.20;;;1.47;;
1679;SDS011;838;51.794;12.258;2024-03-29T06:54:26;3.57;;;1.30;;
1679;SDS011;838;51.794;12.258;2024-03-29T06:56:53;3.33;;;1.60;;
1679;SDS011;838;51.794;12.258;2024-03-29T06:59:19;2.63;;;1.10;;
1679;SDS011;838;51.794;12.258;2024-03-29T07:01:45;2.93;;;1.40;;
1679;SDS011;838;51.794;12.258;2024-03-29T07:04:17;3.60;;;1.43;;
1679;SDS011;838;51.794;12.258;2024-03-29T07:06:46;2.70;;;1.30;;
1679;SDS011;838;51.794;12.258;2024-03-29T07:09:13;3.33;;;1.43;;
1679;SDS011;838;51.794;12.258;2024-03-29T07:11:39;5.70;;;2.60;;
1679;SDS011;838;51.794;12.258;2024-03-29T07:14:05;2.93;;;1.30;;
1679;SDS011;838;51.794;12.258;2024-03-29T07:16:31;7.30;;;1.70;;
1679;SDS011;838;51.794;12.258;2024-03-29T07:18:57;7.70;;;2.40;;
1679;SDS011;838;51.794;12.258;2024-03-29T07:21:23;4.90;;;1.90;;
1679;SDS011;838;51.794;12.258;2024-03-29T07:23:50;3.20;;;1.70;;
1679;SDS011;838;51.794;12.258;2024-03-29T07:26:16;4.93;;;1.50;;
1679;SDS011;838;51.794;12.258;2024-03-29T07:28:41;3.07;;;1.53;;
1679;SDS011;838;51.794;12.258;2024-03-29T07:31:07;7.23;;;2.03;;
1679;SDS011;838;51.794;12.258;2024-03-29T07:33:33;4.57;;;1.90;;
1679;SDS011;838;51.794;12.258;2024-03-29T07:35:59;3.47;;;1.73;;
1679;SDS011;838;51.794;12.258;2024-03-29T07:38:25;3.27;;;1.30;;
1679;SDS011;838;51.794;12.258;2024-03-29T07:40:50;4.67;;;1.53;;
1679;SDS011;838;51.794;12.258;2024-03-29T07:43:21;6.33;;;1.40;;
1679;SDS011;838;51.794;12.258;2024-03-29T07:45:47;2.80;;;1.43;;
1679;SDS011;838;51.794;12.258;2024-03-29T07:48:14;3.30;;;1.50;;
1679;SDS011;838;51.794;12.258;2024-03-29T07:50:41;4.23;;;1.60;;
1679;SDS011;838;51.794;12.258;2024-03-29T07:53:07;4.63;;;1.40;;
1679;SDS011;838;51.794;12.258;2024-03-29T07:55:40;3.50;;;2.30;;
1679;SDS011;838;51.794;12.258;2024-03-29T07:58:08;3.67;;;2.10;;
1679;SDS011;838;51.794;12.258;2024-03-29T08:00:38;5.33;;;1.70;;
1679;SDS011;838;51.794;12.258;2024-03-29T08:03:06;4.40;;;2.10;;
1679;SDS011;838;51.794;12.258;2024-03-29T08:05:31;3.37;;;1.40;;
1679;SDS011;838;51.794;12.258;2024-03-29T08:07:58;3.57;;;1.73;;
1679;SDS011;838;51.794;12.258;2024-03-29T08:10:24;3.17;;;1.40;;
1679;SDS011;838;51.794;12.258;2024-03-29T08:12:50;3.17;;;1.47;;
1679;SDS011;838;51.794;12.258;2024-03-29T08:15:16;2.73;;;1.17;;
1679;SDS011;838;51.794;12.258;2024-03-29T08:17:43;4.07;;;1.97;;
1679;SDS011;838;51.794;12.258;2024-03-29T08:20:10;4.30;;;1.57;;
1679;SDS011;838;51.794;12.258;2024-03-29T08:22:36;2.70;;;1.20;;
1679;SDS011;838;51.794;12.258;2024-03-29T08:25:02;2.70;;;1.20;;
1679;SDS011;838;51.794;12.258;2024-03-29T08:27:27;3.27;;;1.30;;
1679;SDS011;838;51.794;12.258;2024-03-29T08:29:53;2.77;;;1.20;;
1679;SDS011;838;51.794;12.258;2024-03-29T08:32:20;3.50;;;1.40;;
1679;SDS011;838;51.794;12.258;2024-03-29T08:34:46;5.03;;;1.20;;
1679;SDS011;838;51.794;12.258;2024-03-29T08:37:12;2.97;;;1.17;;
1679;SDS011;838;51.794;12.258;2024-03-29T08:39:37;4.80;;;1.43;;
1679;SDS011;838;51.794;12.258;2024-03-29T08:42:04;3.10;;;1.37;;
1679;SDS011;838;51.794;12.258;2024-03-29T08:44:31;2.60;;;1.00;;
1679;SDS011;838;51.794;12.258;2024-03-29T08:46:57;3.00;;;1.23;;
1679;SDS011;838;51.794;12.258;2024-03-29T08:49:24;2.60;;;1.00;;
1679;SDS011;838;51.794;12.258;2024-03-29T08:51:50;2.67;;;1.00;;
1679;SDS011;838;51.794;12.258;2024-03-29T08:54:16;3.70;;;1.53;;
1679;SDS011;838;51.794;12.258;2024-03-29T08:56:41;2.77;;;1.30;;
1679;SDS011;838;51.794;12.258;2024-03-29T08:59:07;2.83;;;1.20;;
1679;SDS011;838;51.794;12.258;2024-03-29T09:01:37;3.00;;;1.30;;
1679;SDS011;838;51.794;12.258;2024-03-29T09:04:14;4.40;;;1.53;;
1679;SDS011;838;51.794;12.258;2024-03-29T09:06:40;2.87;;;1.40;;
1679;SDS011;838;51.794;12.258;2024-03-29T09:09:06;4.03;;;1.50;;
1679;SDS011;838;51.794;12.258;2024-03-29T09:11:33;2.70;;;1.33;;
1679;SDS011;838;51.794;12.258;2024-03-29T09:13:58;2.97;;;1.47;;
1679;SDS011;838;51.794;12.258;2024-03-29T09:16:27;3.17;;;1.30;;
1679;SDS011;838;51.794;12.258;2024-03-29T09:18:55;3.70;;;1.30;;
1679;SDS011;838;51.794;12.258;2024-03-29T09:21:21;2.63;;;1.00;;
1679;SDS011;838;51.794;12.258;2024-03-29T09:23:47;3.50;;;1.20;;
1679;SDS011;838;51.794;12.258;2024-03-29T09:26:14;3.33;;;1.40;;
1679;SDS011;838;51.794;12.258;2024-03-29T09:28:40;6.93;;;1.57;;
1679;SDS011;838;51.794;12.258;2024-03-29T09:31:06;3.07;;;1.40;;
1679;SDS011;838;51.794;12.258;2024-03-29T09:33:32;3.90;;;1.53;;
1679;SDS011;838;51.794;12.258;2024-03-29T09:35:58;3.00;;;1.30;;
1679;SDS011;838;51.794;12.258;2024-03-29T09:38:25;2.83;;;1.20;;
1679;SDS011;838;51.794;12.258;2024-03-29T09:41:03;2.80;;;1.17;;
1679;SDS011;838;51.794;12.258;2024-03-29T09:43:42;3.53;;;1.50;;
1679;SDS011;838;51.794;12.258;2024-03-29T09:46:14;5.10;;;1.50;;
1679;SDS011;838;51.794;12.258;2024-03-29T09:48:41;2.97;;;1.20;;
1679;SDS011;838;51.794;12.258;2024-03-29T09:51:08;3.60;;;1.30;;
1679;SDS011;838;51.794;12.258;2024-03-29T09:53:35;3.70;;;1.43;;
1679;SDS011;838;51.794;12.258;2024-03-29T09:56:05;3.20;;;1.47;;
1679;SDS011;838;51.794;12.258;2024-03-29T09:58:32;3.10;;;1.33;;
1679;SDS011;838;51.794;12.258;2024-03-29T10:00:58;3.40;;;1.40;;
1679;SDS011;838;51.794;12.258;2024-03-29T10:03:25;3.40;;;1.50;;
1679;SDS011;838;51.794;12.258;2024-03-29T10:05:59;3.20;;;1.40;;
1679;SDS011;838;51.794;12.258;2024-03-29T10:08:28;3.27;;;1.30;;
1679;SDS011;838;51.794;12.258;2024-03-29T10:10:55;3.60;;;1.43;;
1679;SDS011;838;51.794;12.258;2024-03-29T10:13:22;4.70;;;1.50;;
1679;SDS011;838;51.794;12.258;2024-03-29T10:15:51;2.93;;;1.27;;
1679;SDS011;838;51.794;12.258;2024-03-29T10:18:20;2.93;;;1.30;;
1679;SDS011;838;51.794;12.258;2024-03-29T10:21:03;4.20;;;1.37;;
1679;SDS011;838;51.794;12.258;2024-03-29T10:23:32;3.27;;;1.47;;
1679;SDS011;838;51.794;12.258;2024-03-29T10:25:59;3.07;;;1.40;;
1679;SDS011;838;51.794;12.258;2024-03-29T10:28:27;4.80;;;1.60;;
1679;SDS011;838;51.794;12.258;2024-03-29T10:30:58;3.00;;;1.20;;
1679;SDS011;838;51.794;12.258;2024-03-29T10:33:28;4.53;;;1.80;;
1679;SDS011;838;51.794;12.258;2024-03-29T10:35:56;3.13;;;1.20;;
1679;SDS011;838;51.794;12.258;2024-03-29T10:38:24;3.10;;;1.30;;
1679;SDS011;838;51.794;12.258;2024-03-29T10:40:51;2.83;;;1.10;;
1679;SDS011;838;51.794;12.258;2024-03-29T10:43:17;2.90;;;1.23;;
1679;SDS011;838;51.794;12.258;2024-03-29T10:45:45;3.60;;;1.40;;
1679;SDS011;838;51.794;12.258;2024-03-29T10:48:14;4.50;;;1.70;;
1679;SDS011;838;51.794;12.258;2024-03-29T10:50:41;3.17;;;1.27;;
1679;SDS011;838;51.794;12.258;2024-03-29T10:53:08;3.63;;;1.27;;
1679;SDS011;838;51.794;12.258;2024-03-29T10:55:35;3.37;;;1.30;;
1679;SDS011;838;51.794;12.258;2024-03-29T10:58:03;3.13;;;1.40;;
1679;SDS011;838;51.794;12.258;2024-03-29T11:00:34;2.73;;;1.20;;
1679;SDS011;838;51.794;12.258;2024-03-29T11:04:00;2.77;;;1.03;;
1679;SDS011;838;51.794;12.258;2024-03-29T11:06:09;5.20;;;1.30;;
1679;SDS011;838;51.794;12.258;2024-03-29T11:08:38;4.37;;;1.10;;
1679;SDS011;838;51.794;12.258;2024-03-29T11:11:10;4.30;;;1.33;;
1679;SDS011;838;51.794;12.258;2024-03-29T11:16:24;2.87;;;1.00;;
1679;SDS011;838;51.794;12.258;2024-03-29T11:18:50;3.43;;;1.17;;
1679;SDS011;838;51.794;12.258;2024-03-29T11:21:18;5.30;;;2.07;;
1679;SDS011;838;51.794;12.258;2024-03-29T11:23:48;6.87;;;2.87;;
1679;SDS011;838;51.794;12.258;2024-03-29T11:26:15;6.53;;;3.47;;
1679;SDS011;838;51.794;12.258;2024-03-29T11:28:47;4.23;;;1.77;;
1679;SDS011;838;51.794;12.258;2024-03-29T11:31:16;3.47;;;1.23;;
1679;SDS011;838;51.794;12.258;2024-03-29T11:36:12;2.97;;;1.40;;
1679;SDS011;838;51.794;12.258;2024-03-29T11:38:41;2.83;;;1.30;;
1679;SDS011;838;51.794;12.258;2024-03-29T11:43:38;3.00;;;1.23;;
1679;SDS011;838;51.794;12.258;2024-03-29T11:46:08;3.30;;;1.30;;
1679;SDS011;838;51.794;12.258;2024-03-29T11:48:35;2.70;;;1.00;;
1679;SDS011;838;51.794;12.258;2024-03-29T11:51:03;3.67;;;1.40;;
1679;SDS011;838;51.794;12.258;2024-03-29T11:53:30;4.20;;;1.20;;
1679;SDS011;838;51.794;12.258;2024-03-29T11:55:57;8.40;;;1.57;;
1679;SDS011;838;51.794;12.258;2024-03-29T11:58:27;2.50;;;1.00;;
1679;SDS011;838;51.794;12.258;2024-03-29T12:00:54;3.17;;;1.17;;
1679;SDS011;838;51.794;12.258;2024-03-29T12:03:22;3.70;;;1.70;;
1679;SDS011;838;51.794;12.258;2024-03-29T12:05:50;4.73;;;1.07;;
1679;SDS011;838;51.794;12.258;2024-03-29T12:08:19;2.83;;;1.23;;
1679;SDS011;838;51.794;12.258;2024-03-29T12:10:45;3.50;;;1.40;;
1679;SDS011;838;51.794;12.258;2024-03-29T12:13:11;5.13;;;1.30;;
1679;SDS011;838;51.794;12.258;2024-03-29T12:15:42;5.07;;;1.20;;
1679;SDS011;838;51.794;12.258;2024-03-29T12:18:08;4.10;;;1.20;;
1679;SDS011;838;51.794;12.258;2024-03-29T12:20:34;3.87;;;1.50;;
1679;SDS011;838;51.794;12.258;2024-03-29T12:23:04;2.63;;;0.97;;
1679;SDS011;838;51.794;12.258;2024-03-29T12:25:32;3.60;;;1.43;;
1679;SDS011;838;51.794;12.258;2024-03-29T12:27:59;3.23;;;1.10;;
1679;SDS011;838;51.794;12.258;2024-03-29T12:30:26;3.37;;;1.13;;
1679;SDS011;838;51.794;12.258;2024-03-29T12:33:02;3.40;;;1.27;;
1679;SDS011;838;51.794;12.258;2024-03-29T12:35:29;2.60;;;1.20;;
1679;SDS011;838;51.794;12.258;2024-03-29T12:38:02;2.90;;;1.47;;
1679;SDS011;838;51.794;12.258;2024-03-29T12:40:29;2.70;;;1.20;;
1679;SDS011;838;51.794;12.258;2024-03-29T12:43:03;5.20;;;1.40;;
1679;SDS011;838;51.794;12.258;2024-03-29T12:45:30;8.13;;;1.57;;
1679;SDS011;838;51.794;12.258;2024-03-29T12:47:57;5.63;;;1.40;;
1679;SDS011;838;51.794;12.258;2024-03-29T12:52:52;4.33;;;1.33;;
1679;SDS011;838;51.794;12.258;2024-03-29T12:55:26;4.20;;;1.63;;
1679;SDS011;838;51.794;12.258;2024-03-29T12:58:01;4.50;;;1.83;;
1679;SDS011;838;51.794;12.258;2024-03-29T13:00:29;3.47;;;1.67;;
1679;SDS011;838;51.794;12.258;2024-03-29T13:02:56;3.50;;;1.20;;
1679;SDS011;838;51.794;12.258;2024-03-29T13:05:22;3.10;;;1.40;;
1679;SDS011;838;51.794;12.258;2024-03-29T13:07:48;2.70;;;1.23;;
1679;SDS011;838;51.794;12.258;2024-03-29T13:10:14;3.13;;;1.50;;
1679;SDS011;838;51.794;12.258;2024-03-29T13:12:44;3.83;;;1.10;;
1679;SDS011;838;51.794;12.258;2024-03-29T13:15:18;3.70;;;1.40;;
1679;SDS011;838;51.794;12.258;2024-03-29T13:17:46;3.57;;;1.40;;
1679;SDS011;838;51.794;12.258;2024-03-29T13:20:13;3.03;;;1.20;;
1679;SDS011;838;51.794;12.258;2024-03-29T13:22:43;3.10;;;1.30;;
1679;SDS011;838;51.794;12.258;2024-03-29T13:25:14;2.40;;;0.70;;
1679;SDS011;838;51.794;12.258;2024-03-29T13:27:41;2.67;;;1.10;;
1679;SDS011;838;51.794;12.258;2024-03-29T13:30:08;2.70;;;1.00;;
1679;SDS011;838;51.794;12.258;2024-03-29T13:32:35;2.40;;;0.70;;
1679;SDS011;838;51.794;12.258;2024-03-29T13:35:02;2.70;;;1.00;;
1679;SDS011;838;51.794;12.258;2024-03-29T13:37:31;2.40;;;0.80;;
1679;SDS011;838;51.794;12.258;2024-03-29T13:39:59;2.30;;;0.70;;
1679;SDS011;838;51.794;12.258;2024-03-29T13:42:25;2.60;;;0.70;;
1679;SDS011;838;51.794;12.258;2024-03-29T13:44:51;4.90;;;1.03;;
1679;SDS011;838;51.794;12.258;2024-03-29T13:47:18;2.30;;;0.80;;
1679;SDS011;838;51.794;12.258;2024-03-29T13:49:45;2.33;;;0.70;;
1679;SDS011;838;51.794;12.258;2024-03-29T13:52:14;2.97;;;0.90;;
1679;SDS011;838;51.794;12.258;2024-03-29T13:54:43;2.70;;;1.10;;
1679;SDS011;838;51.794;12.258;2024-03-29T13:57:11;3.27;;;0.80;;
1679;SDS011;838;51.794;12.258;2024-03-29T13:59:41;2.50;;;0.90;;
1679;SDS011;838;51.794;12.258;2024-03-29T14:02:08;2.40;;;0.70;;
1679;SDS011;838;51.794;12.258;2024-03-29T14:04:36;2.33;;;0.80;;
1679;SDS011;838;51.794;12.258;2024-03-29T14:07:02;2.60;;;0.90;;
1679;SDS011;838;51.794;12.258;2024-03-29T14:09:31;2.50;;;0.70;;
1679;SDS011;838;51.794;12.258;2024-03-29T14:11:59;2.53;;;0.60;;
1679;SDS011;838;51.794;12.258;2024-03-29T14:14:25;3.43;;;0.90;;
1679;SDS011;838;51.794;12.258;2024-03-29T14:16:51;2.77;;;1.00;;
1679;SDS011;838;51.794;12.258;2024-03-29T14:19:17;2.50;;;0.80;;
1679;SDS011;838;51.794;12.258;2024-03-29T14:21:42;3.30;;;1.30;;
1679;SDS011;838;51.794;12.258;2024-03-29T14:24:08;2.30;;;0.63;;
1679;SDS011;838;51.794;12.258;2024-03-29T14:26:34;2.70;;;0.80;;
1679;SDS011;838;51.794;12.258;2024-03-29T14:28:59;2.30;;;0.70;;
1679;SDS011;838;51.794;12.258;2024-03-29T14:31:25;2.60;;;0.80;;
1679;SDS011;838;51.794;12.258;2024-03-29T14:33:51;2.70;;;0.80;;
1679;SDS011;838;51.794;12.258;2024-03-29T14:36:16;2.30;;;0.73;;
1679;SDS011;838;51.794;12.258;2024-03-29T14:38:43;2.70;;;0.93;;
1679;SDS011;838;51.794;12.258;2024-03-29T14:41:09;2.40;;;0.70;;
1679;SDS011;838;51.794;12.258;2024-03-29T14:43:35;3.00;;;1.00;;
1679;SDS011;838;51.794;12.258;2024-03-29T14:46:01;2.47;;;0.80;;
1679;SDS011;838;51.794;12.258;2024-03-29T14:48:27;2.47;;;0.83;;
1679;SDS011;838;51.794;12.258;2024-03-29T14:50:53;2.47;;;0.90;;
1679;SDS011;838;51.794;12.258;2024-03-29T14:53:21;2.50;;;0.70;;
1679;SDS011;838;51.794;12.258;2024-03-29T14:55:47;2.30;;;0.60;;
1679;SDS011;838;51.794;12.258;2024-03-29T14:58:13;2.50;;;0.90;;
1679;SDS011;838;51.794;12.258;2024-03-29T15:00:38;2.70;;;0.70;;
1679;SDS011;838;51.794;12.258;2024-03-29T15:03:04;3.27;;;0.90;;
1679;SDS011;838;51.794;12.258;2024-03-29T15:05:30;2.90;;;1.00;;
1679;SDS011;838;51.794;12.258;2024-03-29T15:07:56;3.73;;;0.93;;
1679;SDS011;838;51.794;12.258;2024-03-29T15:10:22;3.00;;;0.97;;
1679;SDS011;838;51.794;12.258;2024-03-29T15:12:48;2.40;;;0.80;;
1679;SDS011;838;51.794;12.258;2024-03-29T15:15:14;2.93;;;1.10;;
1679;SDS011;838;51.794;12.258;2024-03-29T15:17:41;2.53;;;0.80;;
1679;SDS011;838;51.794;12.258;2024-03-29T15:20:08;2.50;;;0.77;;
1679;SDS011;838;51.794;12.258;2024-03-29T15:22:36;2.90;;;0.93;;
1679;SDS011;838;51.794;12.258;2024-03-29T15:25:03;2.43;;;0.80;;
1679;SDS011;838;51.794;12.258;2024-03-29T15:27:29;2.50;;;1.00;;